createdAt,value
2022-11-29T00:01:34.172Z,8.65
2022-11-29T00:04:01.979Z,8.07
2022-11-29T00:06:31.047Z,7.85
2022-11-29T00:09:00.562Z,14.97
2022-11-29T00:11:47.629Z,9.35
2022-11-29T00:14:16.222Z,12.07
2022-11-29T00:16:43.933Z,13.20
2022-11-29T00:19:12.074Z,11.27
2022-11-29T00:21:39.763Z,12.75
2022-11-29T00:24:07.491Z,13.30
2022-11-29T00:26:37.113Z,8.48
2022-11-29T00:29:04.983Z,9.10
2022-11-29T00:31:32.953Z,11.65
2022-11-29T00:34:01.018Z,12.13
2022-11-29T00:36:28.767Z,9.57
2022-11-29T00:38:56.474Z,13.45
2022-11-29T00:41:24.083Z,11.83
2022-11-29T00:43:51.677Z,11.45
2022-11-29T00:46:19.222Z,11.60
2022-11-29T00:48:46.875Z,14.07
2022-11-29T00:51:14.427Z,11.60
2022-11-29T00:53:41.973Z,18.65
2022-11-29T00:56:09.572Z,11.73
2022-11-29T00:58:37.499Z,15.77
2022-11-29T01:01:07.895Z,15.63
2022-11-29T01:03:35.494Z,11.93
2022-11-29T01:06:06.796Z,10.40
2022-11-29T01:08:34.338Z,13.27
2022-11-29T01:11:05.491Z,17.58
2022-11-29T01:13:33.175Z,9.27
2022-11-29T01:16:00.919Z,8.68
2022-11-29T01:18:31.034Z,10.30
2022-11-29T01:20:59.390Z,12.88
2022-11-29T01:23:27.063Z,9.13
2022-11-29T01:26:02.459Z,14.68
2022-11-29T01:28:30.073Z,12.05
2022-11-29T01:30:57.801Z,10.37
2022-11-29T01:33:25.423Z,9.52
2022-11-29T01:35:53.635Z,11.68
2022-11-29T01:38:21.679Z,12.70
2022-11-29T01:41:02.895Z,8.48
2022-11-29T01:43:30.692Z,8.88
2022-11-29T01:45:58.302Z,8.25
2022-11-29T01:48:29.700Z,8.23
2022-11-29T01:50:58.465Z,8.43
2022-11-29T01:53:26.046Z,8.50
2022-11-29T01:55:55.199Z,8.00
2022-11-29T01:58:22.759Z,7.95
2022-11-29T02:00:50.345Z,8.70
2022-11-29T02:03:18.401Z,8.37
2022-11-29T02:05:47.172Z,8.68
2022-11-29T02:08:15.231Z,7.80
2022-11-29T02:10:46.287Z,8.18
2022-11-29T02:13:21.247Z,8.17
2022-11-29T02:15:54.872Z,8.45
2022-11-29T02:18:45.125Z,8.30
2022-11-29T02:21:28.342Z,8.87
2022-11-29T02:24:14.671Z,8.07
2022-11-29T02:27:01.160Z,6.65
2022-11-29T02:29:31.530Z,7.47
2022-11-29T02:32:17.732Z,7.32
2022-11-29T02:34:54.922Z,8.77
2022-11-29T02:37:41.167Z,10.00
2022-11-29T02:40:09.135Z,11.73
2022-11-29T02:42:55.653Z,7.65
2022-11-29T02:45:23.885Z,7.40
2022-11-29T02:47:51.467Z,10.30
2022-11-29T02:50:25.254Z,8.93
2022-11-29T02:53:07.414Z,7.15
2022-11-29T02:55:34.951Z,8.00
2022-11-29T02:58:02.559Z,8.40
2022-11-29T03:00:30.945Z,8.38
2022-11-29T03:03:01.169Z,9.02
2022-11-29T03:05:31.913Z,8.03
2022-11-29T03:08:02.227Z,7.65
2022-11-29T03:10:29.807Z,8.50
2022-11-29T03:12:57.337Z,7.13
2022-11-29T03:15:33.494Z,7.72
2022-11-29T03:18:20.645Z,8.15
2022-11-29T03:20:54.043Z,8.70
2022-11-29T03:23:24.722Z,7.68
2022-11-29T03:25:55.014Z,7.22
2022-11-29T03:28:48.792Z,9.27
2022-11-29T03:31:28.161Z,11.50
2022-11-29T03:34:01.483Z,11.00
2022-11-29T03:36:34.915Z,9.07
2022-11-29T03:39:04.871Z,7.30
2022-11-29T03:41:40.265Z,8.90
2022-11-29T03:44:07.756Z,7.55
2022-11-29T03:46:47.376Z,10.07
2022-11-29T03:49:23.039Z,9.77
2022-11-29T03:52:09.585Z,14.13
2022-11-29T03:54:56.024Z,10.10
2022-11-29T03:57:27.155Z,12.23
2022-11-29T04:00:00.839Z,11.45
2022-11-29T04:02:43.826Z,10.60
2022-11-29T04:05:18.232Z,10.93
2022-11-29T04:07:58.192Z,10.82
2022-11-29T04:10:27.236Z,8.05
2022-11-29T04:13:00.927Z,8.43
2022-11-29T04:15:46.687Z,8.55
2022-11-29T04:18:32.876Z,8.13
2022-11-29T04:21:00.405Z,8.90
2022-11-29T04:23:37.236Z,7.77
2022-11-29T04:26:10.568Z,7.75
2022-11-29T04:28:56.905Z,7.32
2022-11-29T04:31:29.771Z,7.27
2022-11-29T04:34:09.751Z,7.15
2022-11-29T04:36:40.159Z,6.53
2022-11-29T04:39:10.625Z,6.87
2022-11-29T04:41:43.958Z,6.95
2022-11-29T04:44:14.363Z,7.40
2022-11-29T04:46:54.006Z,7.32
2022-11-29T04:49:36.771Z,8.03
2022-11-29T04:52:22.803Z,7.68
2022-11-29T04:54:50.447Z,8.85
2022-11-29T04:57:22.076Z,8.60
2022-11-29T04:59:52.395Z,7.95
2022-11-29T05:02:34.922Z,10.65
2022-11-29T05:05:06.798Z,8.77
2022-11-29T05:07:40.647Z,10.30
2022-11-29T05:10:08.259Z,7.07
2022-11-29T05:12:38.722Z,9.02
2022-11-29T05:15:18.401Z,10.23
2022-11-29T05:17:51.826Z,12.38
2022-11-29T05:20:22.279Z,8.25
2022-11-29T05:22:52.562Z,6.23
2022-11-29T05:25:26.090Z,6.75
2022-11-29T05:27:57.787Z,6.43
2022-11-29T05:30:25.648Z,7.20
2022-11-29T05:33:06.095Z,7.25
2022-11-29T05:35:50.203Z,5.68
2022-11-29T05:38:22.925Z,5.75
2022-11-29T05:41:04.254Z,6.20
2022-11-29T05:43:55.158Z,6.53
2022-11-29T05:46:25.874Z,4.88
2022-11-29T05:48:59.324Z,5.60
2022-11-29T05:51:38.236Z,5.38
2022-11-29T05:54:25.402Z,5.65
2022-11-29T05:56:53.007Z,5.30
2022-11-29T05:59:22.393Z,4.45
2022-11-29T06:02:02.752Z,5.70
2022-11-29T06:04:34.011Z,6.90
2022-11-29T06:07:01.802Z,6.27
2022-11-29T06:09:31.067Z,8.38
2022-11-29T06:12:02.973Z,9.45
2022-11-29T06:14:36.809Z,9.27
2022-11-29T06:17:04.535Z,17.38
2022-11-29T06:19:41.009Z,17.38
2022-11-29T06:22:27.580Z,14.63
2022-11-29T06:24:56.739Z,10.45
2022-11-29T06:27:31.641Z,6.20
2022-11-29T06:30:07.237Z,5.43
2022-11-29T06:32:46.712Z,5.30
2022-11-29T06:35:35.061Z,4.50
2022-11-29T06:38:04.554Z,4.13
2022-11-29T06:40:33.271Z,4.40
2022-11-29T06:43:03.072Z,4.45
2022-11-29T06:45:30.837Z,4.47
2022-11-29T06:48:02.884Z,4.23
2022-11-29T06:50:30.798Z,4.90
2022-11-29T06:53:10.443Z,4.65
2022-11-29T06:55:58.435Z,4.40
2022-11-29T06:58:36.432Z,5.63
2022-11-29T07:01:22.835Z,7.22
2022-11-29T07:03:54.404Z,6.88
2022-11-29T07:06:22.836Z,7.17
2022-11-29T07:08:51.961Z,7.70
2022-11-29T07:11:19.627Z,6.95
2022-11-29T07:13:47.306Z,5.50
2022-11-29T07:16:28.304Z,5.93
2022-11-29T07:19:05.170Z,4.63
2022-11-29T07:22:08.244Z,5.78
2022-11-29T07:24:35.791Z,4.13
2022-11-29T07:27:15.750Z,4.90
2022-11-29T07:29:46.165Z,4.43
2022-11-29T07:32:28.890Z,4.47
2022-11-29T07:35:05.784Z,4.32
2022-11-29T07:37:59.624Z,4.82
2022-11-29T07:40:42.725Z,4.33
2022-11-29T07:43:31.989Z,4.32
2022-11-29T07:45:59.543Z,4.63
2022-11-29T07:48:27.076Z,4.85
2022-11-29T07:50:55.447Z,5.50
2022-11-29T07:53:23.134Z,3.97
2022-11-29T07:55:50.804Z,4.75
2022-11-29T07:58:18.574Z,4.10
2022-11-29T08:00:46.423Z,4.57
2022-11-29T08:03:14.044Z,5.78
2022-11-29T08:05:41.628Z,5.93
2022-11-29T08:08:09.267Z,4.47
2022-11-29T08:10:36.839Z,4.15
2022-11-29T08:13:04.459Z,3.83
2022-11-29T08:15:32.024Z,3.50
2022-11-29T08:17:59.621Z,4.03
2022-11-29T08:20:27.109Z,4.47
2022-11-29T08:22:58.689Z,3.67
2022-11-29T08:25:26.514Z,3.25
2022-11-29T08:27:54.851Z,3.05
2022-11-29T08:30:22.803Z,2.83
2022-11-29T08:32:51.817Z,3.80
2022-11-29T08:35:20.379Z,3.70
2022-11-29T08:37:48.013Z,2.80
2022-11-29T08:40:15.652Z,2.60
2022-11-29T08:42:43.172Z,2.47
2022-11-29T08:45:11.149Z,2.05
2022-11-29T08:47:38.934Z,2.07
2022-11-29T08:50:12.647Z,2.25
2022-11-29T08:53:00.021Z,2.70
2022-11-29T08:55:28.299Z,2.17
2022-11-29T08:57:56.331Z,2.35
2022-11-29T09:00:24.138Z,2.40
2022-11-29T09:02:51.884Z,2.60
2022-11-29T09:05:19.480Z,2.63
2022-11-29T09:07:47.201Z,3.95
2022-11-29T09:10:14.752Z,4.55
2022-11-29T09:12:45.037Z,4.73
2022-11-29T09:15:12.753Z,5.60
2022-11-29T09:17:40.324Z,5.68
2022-11-29T09:20:08.465Z,5.43
2022-11-29T09:22:36.006Z,5.38
2022-11-29T09:25:03.813Z,5.40
2022-11-29T09:27:34.250Z,5.82
2022-11-29T09:30:01.782Z,5.27
2022-11-29T09:32:29.409Z,6.20
2022-11-29T09:34:57.017Z,5.68
2022-11-29T09:37:24.513Z,5.77
2022-11-29T09:39:52.092Z,6.40
2022-11-29T09:42:19.616Z,6.50
2022-11-29T09:44:47.479Z,5.70
2022-11-29T09:47:50.959Z,5.85
2022-11-29T09:50:26.393Z,5.93
2022-11-29T09:53:12.419Z,5.15
2022-11-29T09:55:44.091Z,5.23
2022-11-29T09:58:13.784Z,5.40
2022-11-29T10:00:44.219Z,5.35
2022-11-29T10:03:14.731Z,5.40
2022-11-29T10:05:44.443Z,5.40
2022-11-29T10:08:29.426Z,5.95
2022-11-29T10:10:58.495Z,5.63
2022-11-29T10:13:26.887Z,5.47
2022-11-29T10:15:55.438Z,7.15
2022-11-29T10:18:29.103Z,6.00
2022-11-29T10:21:00.809Z,5.40
2022-11-29T10:23:35.689Z,4.97
2022-11-29T10:26:08.027Z,5.28
2022-11-29T10:28:35.972Z,4.67
2022-11-29T10:31:14.741Z,5.13
2022-11-29T10:33:42.441Z,4.85
2022-11-29T10:36:17.241Z,5.37
2022-11-29T10:38:44.760Z,6.22
2022-11-29T10:41:14.145Z,5.75
2022-11-29T10:43:43.126Z,5.43
2022-11-29T10:46:12.398Z,5.50
2022-11-29T10:48:39.966Z,5.55
2022-11-29T10:51:09.371Z,5.45
2022-11-29T10:53:37.570Z,5.67
2022-11-29T10:56:22.487Z,5.50
2022-11-29T10:59:03.539Z,5.72
2022-11-29T11:01:32.044Z,5.60
2022-11-29T11:03:59.721Z,5.15
2022-11-29T11:06:46.698Z,5.15
2022-11-29T11:09:20.660Z,4.43
2022-11-29T11:11:51.998Z,4.27
2022-11-29T11:14:21.424Z,4.40
2022-11-29T11:16:49.132Z,4.55
2022-11-29T11:19:25.940Z,5.23
2022-11-29T11:21:53.513Z,5.03
2022-11-29T11:24:25.250Z,4.63
2022-11-29T11:26:52.800Z,4.10
2022-11-29T11:29:20.996Z,4.28
2022-11-29T11:31:52.314Z,4.30
2022-11-29T11:34:28.767Z,4.13
2022-11-29T11:37:14.834Z,4.40
2022-11-29T11:39:42.940Z,3.95
2022-11-29T11:42:33.304Z,4.40
2022-11-29T11:45:01.141Z,3.80
2022-11-29T11:47:31.964Z,3.53
2022-11-29T11:50:02.607Z,4.32
2022-11-29T11:52:32.950Z,4.20
2022-11-29T11:55:08.135Z,4.07
2022-11-29T11:57:35.661Z,4.18
2022-11-29T12:00:06.965Z,3.95
2022-11-29T12:02:38.993Z,3.97
2022-11-29T12:05:17.722Z,3.53
2022-11-29T12:10:36.803Z,3.60
2022-11-29T12:13:04.411Z,3.55
2022-11-29T12:15:38.309Z,3.78
2022-11-29T12:18:12.379Z,3.80
2022-11-29T12:20:52.112Z,3.88
2022-11-29T12:23:23.511Z,3.60
2022-11-29T12:25:54.054Z,3.83
2022-11-29T12:28:22.039Z,4.00
2022-11-29T12:31:16.024Z,4.35
2022-11-29T12:33:54.458Z,4.75
2022-11-29T12:36:24.811Z,3.87
2022-11-29T12:38:53.524Z,3.85
2022-11-29T12:41:26.834Z,4.47
2022-11-29T12:43:56.820Z,3.90
2022-11-29T12:46:25.947Z,4.72
2022-11-29T12:49:12.107Z,4.28
2022-11-29T12:51:44.196Z,4.57
2022-11-29T12:54:11.871Z,4.40
2022-11-29T12:56:57.859Z,5.10
2022-11-29T12:59:28.360Z,4.75
2022-11-29T13:02:14.373Z,4.30
2022-11-29T13:04:55.031Z,4.18
2022-11-29T13:07:45.821Z,4.53
2022-11-29T13:10:32.225Z,4.93
2022-11-29T13:13:19.993Z,5.03
2022-11-29T13:15:53.469Z,5.10
2022-11-29T13:18:24.356Z,5.55
2022-11-29T13:20:57.216Z,4.60
2022-11-29T13:23:45.666Z,5.00
2022-11-29T13:26:25.720Z,4.90
2022-11-29T13:28:53.301Z,5.40
2022-11-29T13:31:22.728Z,4.80
2022-11-29T13:33:55.132Z,5.10
2022-11-29T13:36:41.228Z,5.67
2022-11-29T13:39:09.221Z,4.97
2022-11-29T13:41:47.344Z,5.63
2022-11-29T13:44:17.756Z,5.07
2022-11-29T13:47:04.713Z,5.07
2022-11-29T13:49:51.055Z,5.03
2022-11-29T13:52:27.600Z,5.30
2022-11-29T13:55:10.227Z,5.40
2022-11-29T14:00:46.818Z,5.60
2022-11-29T14:03:26.242Z,5.57
2022-11-29T14:05:54.524Z,6.15
2022-11-29T14:08:25.916Z,6.13
2022-11-29T14:10:57.208Z,5.90
2022-11-29T14:13:26.467Z,5.77
2022-11-29T14:15:58.187Z,5.60
2022-11-29T14:18:37.745Z,5.32
2022-11-29T14:21:05.528Z,4.87
2022-11-29T14:23:40.520Z,4.38
2022-11-29T14:26:08.070Z,4.00
2022-11-29T14:28:36.109Z,4.50
2022-11-29T14:31:04.384Z,4.45
2022-11-29T14:33:38.001Z,4.30
2022-11-29T14:36:20.949Z,4.80
2022-11-29T14:38:50.500Z,4.17
2022-11-29T14:41:29.830Z,4.18
2022-11-29T14:44:07.598Z,4.55
2022-11-29T14:46:35.141Z,3.30
2022-11-29T14:49:03.059Z,3.33
2022-11-29T14:51:32.439Z,3.40
2022-11-29T14:54:13.394Z,3.90
2022-11-29T14:56:45.057Z,3.85
2022-11-29T14:59:32.061Z,3.60
2022-11-29T15:01:59.918Z,3.88
2022-11-29T15:04:27.599Z,4.43
2022-11-29T15:06:55.714Z,4.00
2022-11-29T15:09:23.909Z,3.47
2022-11-29T15:11:54.465Z,3.40
2022-11-29T15:14:25.206Z,3.15
2022-11-29T15:17:25.097Z,3.00
2022-11-29T15:19:58.549Z,2.77
2022-11-29T15:22:27.687Z,3.25
2022-11-29T15:24:59.148Z,3.15
2022-11-29T15:27:27.015Z,3.17
2022-11-29T15:29:54.536Z,3.07
2022-11-29T15:32:26.062Z,3.40
2022-11-29T15:34:56.693Z,3.22
2022-11-29T15:37:39.506Z,3.30
2022-11-29T15:40:08.393Z,3.65
2022-11-29T15:42:39.884Z,3.40
2022-11-29T15:45:25.535Z,3.50
2022-11-29T15:47:54.088Z,3.25
2022-11-29T15:50:28.131Z,3.88
2022-11-29T15:52:57.230Z,3.65
2022-11-29T15:55:24.826Z,4.10
2022-11-29T15:57:52.535Z,3.70
2022-11-29T16:00:21.747Z,3.97
2022-11-29T16:02:52.240Z,3.90
2022-11-29T16:05:23.003Z,5.00
2022-11-29T16:07:51.495Z,4.60
2022-11-29T16:10:20.183Z,4.60
2022-11-29T16:13:10.966Z,4.30
2022-11-29T16:15:38.524Z,4.75
2022-11-29T16:18:06.697Z,4.50
2022-11-29T16:20:34.313Z,4.00
2022-11-29T16:23:04.690Z,4.47
2022-11-29T16:25:37.386Z,4.72
2022-11-29T16:28:06.823Z,5.23
2022-11-29T16:30:34.389Z,5.50
2022-11-29T16:33:03.563Z,5.35
2022-11-29T16:35:33.940Z,4.87
2022-11-29T16:38:04.478Z,5.45
2022-11-29T16:40:32.964Z,4.47
2022-11-29T16:43:19.416Z,4.88
2022-11-29T16:45:47.098Z,4.90
2022-11-29T16:48:25.577Z,4.70
2022-11-29T16:51:11.363Z,5.88
2022-11-29T16:53:39.624Z,5.40
2022-11-29T16:56:09.020Z,5.82
2022-11-29T16:58:42.941Z,5.90
2022-11-29T17:01:27.904Z,6.37
2022-11-29T17:03:56.574Z,6.20
2022-11-29T17:06:24.532Z,6.20
2022-11-29T17:08:52.430Z,6.63
2022-11-29T17:11:19.987Z,6.17
2022-11-29T17:13:50.381Z,6.60
2022-11-29T17:16:20.019Z,7.47
2022-11-29T17:18:47.676Z,6.77
2022-11-29T17:21:25.130Z,6.88
2022-11-29T17:23:52.872Z,6.60
2022-11-29T17:26:20.609Z,6.60
2022-11-29T17:28:48.757Z,5.93
2022-11-29T17:31:17.339Z,7.00
2022-11-29T17:33:44.915Z,7.00
2022-11-29T17:36:15.289Z,6.40
2022-11-29T17:38:43.132Z,7.25
2022-11-29T17:41:31.757Z,7.05
2022-11-29T17:43:59.351Z,6.43
2022-11-29T17:46:31.655Z,6.28
2022-11-29T17:48:59.585Z,6.82
2022-11-29T17:54:14.688Z,7.10
2022-11-29T17:56:42.281Z,8.23
2022-11-29T17:59:09.794Z,7.53
2022-11-29T18:01:37.430Z,7.80
2022-11-29T18:04:06.070Z,8.68
2022-11-29T18:06:37.335Z,7.10
2022-11-29T18:09:05.150Z,7.40
2022-11-29T18:11:42.994Z,7.97
2022-11-29T18:14:15.408Z,7.97
2022-11-29T18:16:43.074Z,7.57
2022-11-29T18:19:14.339Z,8.02
2022-11-29T18:21:41.938Z,7.90
2022-11-29T18:24:09.869Z,7.53
2022-11-29T18:26:37.520Z,7.47
2022-11-29T18:29:05.687Z,8.00
2022-11-29T18:31:34.400Z,7.72
2022-11-29T18:34:02.499Z,8.07
2022-11-29T18:36:31.076Z,7.57
2022-11-29T18:38:59.521Z,7.93
2022-11-29T18:41:28.421Z,7.73
2022-11-29T18:43:57.184Z,7.47
2022-11-29T18:46:26.140Z,8.20
2022-11-29T18:48:53.799Z,8.40
2022-11-29T18:51:22.045Z,7.70
2022-11-29T18:53:49.717Z,9.35
2022-11-29T18:56:18.586Z,10.38
2022-11-29T18:58:47.308Z,11.63
2022-11-29T19:01:18.787Z,11.23
2022-11-29T19:03:47.411Z,9.38
2022-11-29T19:06:15.963Z,9.07
2022-11-29T19:08:43.684Z,8.68
2022-11-29T19:11:12.523Z,8.95
2022-11-29T19:13:40.504Z,8.73
2022-11-29T19:16:12.915Z,9.20
2022-11-29T19:18:40.837Z,10.15
2022-11-29T19:21:11.894Z,9.48
2022-11-29T19:23:40.932Z,9.83
2022-11-29T19:26:12.343Z,9.77
2022-11-29T19:28:40.877Z,10.07
2022-11-29T19:31:08.788Z,10.40
2022-11-29T19:33:38.815Z,10.15
2022-11-29T19:36:11.412Z,10.63
2022-11-29T19:38:43.973Z,10.18
2022-11-29T19:41:17.341Z,10.93
2022-11-29T19:43:45.019Z,9.77
2022-11-29T19:46:16.494Z,9.75
2022-11-29T19:48:44.773Z,9.83
2022-11-29T19:51:12.470Z,10.48
2022-11-29T19:53:40.139Z,10.00
2022-11-29T19:56:08.300Z,9.93
2022-11-29T19:58:36.786Z,9.15
2022-11-29T20:01:14.888Z,9.68
2022-11-29T20:03:42.653Z,10.35
2022-11-29T20:06:15.998Z,9.33
2022-11-29T20:08:43.716Z,10.52
2022-11-29T20:11:15.397Z,10.10
2022-11-29T20:13:43.544Z,10.27
2022-11-29T20:16:11.886Z,10.73
2022-11-29T20:18:40.141Z,10.65
2022-11-29T20:21:10.856Z,10.90
2022-11-29T20:23:39.844Z,11.02
2022-11-29T20:26:08.197Z,10.60
2022-11-29T20:28:36.119Z,10.52
2022-11-29T20:31:09.108Z,10.33
2022-11-29T20:33:37.585Z,12.23
2022-11-29T20:36:24.050Z,9.82
2022-11-29T20:38:52.725Z,10.50
2022-11-29T20:41:25.340Z,10.40
2022-11-29T20:44:00.841Z,11.20
2022-11-29T20:46:28.885Z,11.33
2022-11-29T20:48:59.415Z,10.63
2022-11-29T20:51:35.980Z,10.07
2022-11-29T20:54:03.520Z,10.20
2022-11-29T20:56:31.061Z,10.43
2022-11-29T20:58:58.582Z,11.00
2022-11-29T21:01:26.210Z,11.02
2022-11-29T21:03:53.827Z,10.87
2022-11-29T21:06:21.449Z,9.70
2022-11-29T21:08:49.846Z,11.25
2022-11-29T21:11:17.621Z,10.03
2022-11-29T21:13:45.349Z,11.05
2022-11-29T21:16:13.307Z,11.00
2022-11-29T21:18:41.219Z,10.73
2022-11-29T21:21:11.146Z,10.40
2022-11-29T21:23:44.689Z,10.75
2022-11-29T21:26:20.749Z,11.98
2022-11-29T21:28:57.530Z,10.60
2022-11-29T21:31:25.235Z,11.63
2022-11-29T21:33:52.975Z,10.48
2022-11-29T21:36:20.486Z,12.23
2022-11-29T21:38:53.880Z,10.77
2022-11-29T21:41:22.649Z,12.27
2022-11-29T21:44:06.208Z,11.05
2022-11-29T21:46:34.655Z,11.07
2022-11-29T21:49:02.303Z,11.80
2022-11-29T21:51:30.106Z,11.55
2022-11-29T21:53:57.681Z,11.53
2022-11-29T21:56:25.477Z,11.30
2022-11-29T21:58:53.089Z,11.35
2022-11-29T22:01:20.894Z,11.97
2022-11-29T22:03:48.427Z,11.57
2022-11-29T22:06:18.639Z,12.00
2022-11-29T22:08:46.119Z,11.25
2022-11-29T22:11:14.318Z,12.13
2022-11-29T22:14:02.557Z,11.77
2022-11-29T22:16:31.224Z,12.15
2022-11-29T22:18:58.802Z,11.80
2022-11-29T22:21:26.458Z,11.57
2022-11-29T22:23:53.952Z,11.95
2022-11-29T22:26:21.517Z,11.20
2022-11-29T22:28:49.046Z,10.68
2022-11-29T22:31:16.755Z,11.27
2022-11-29T22:33:44.571Z,12.02
2022-11-29T22:36:14.924Z,11.47
2022-11-29T22:38:42.540Z,11.45
2022-11-29T22:41:10.932Z,11.52
2022-11-29T22:43:38.761Z,12.30
2022-11-29T22:46:09.119Z,11.70
2022-11-29T22:48:38.989Z,11.38
2022-11-29T22:51:07.666Z,11.77
2022-11-29T22:53:36.039Z,11.55
2022-11-29T22:56:04.008Z,12.52
2022-11-29T22:58:31.607Z,12.55
2022-11-29T23:01:09.625Z,12.83
2022-11-29T23:03:37.573Z,12.45
2022-11-29T23:06:06.000Z,13.57
2022-11-29T23:08:33.732Z,13.23
2022-11-29T23:11:06.684Z,12.70
2022-11-29T23:13:37.836Z,12.95
2022-11-29T23:16:05.950Z,12.67
2022-11-29T23:18:33.691Z,12.35
2022-11-29T23:21:08.096Z,12.52
2022-11-29T23:23:38.761Z,12.93
2022-11-29T23:26:06.466Z,12.50
2022-11-29T23:28:34.552Z,12.18
2022-11-29T23:31:02.188Z,10.65
2022-11-29T23:33:29.731Z,11.90
2022-11-29T23:36:00.786Z,11.65
2022-11-29T23:38:28.364Z,11.32
2022-11-29T23:40:55.979Z,12.63
2022-11-29T23:43:23.666Z,11.90
2022-11-29T23:45:51.246Z,11.90
2022-11-29T23:48:18.866Z,12.27
2022-11-29T23:50:46.504Z,11.23
2022-11-29T23:53:14.716Z,12.27
2022-11-29T23:55:42.481Z,12.00
2022-11-29T23:58:10.263Z,11.53
